createdAt,value
2019-01-25T00:00:52.159Z,3.18
2019-01-25T00:01:52.202Z,3.17
2019-01-25T00:02:52.124Z,3.19
2019-01-25T00:03:52.181Z,3.19
2019-01-25T00:04:52.292Z,3.17
2019-01-25T00:05:52.245Z,3.15
2019-01-25T00:06:52.139Z,3.16
2019-01-25T00:07:52.174Z,3.12
2019-01-25T00:08:52.192Z,3.12
2019-01-25T00:09:59.136Z,3.13
2019-01-25T00:10:52.086Z,3.11
2019-01-25T00:11:52.109Z,3.13
2019-01-25T00:12:52.116Z,3.14
2019-01-25T00:13:52.354Z,3.15
2019-01-25T00:14:52.096Z,3.11
2019-01-25T00:15:52.061Z,3.1
2019-01-25T00:16:52.044Z,3.1
2019-01-25T00:17:52.075Z,3.1
2019-01-25T00:18:52.126Z,3.11
2019-01-25T00:19:51.758Z,3.1
2019-01-25T00:20:52.030Z,3.09
2019-01-25T00:21:52.154Z,3.1
2019-01-25T00:22:52.052Z,3.08
2019-01-25T00:23:52.374Z,3.07
2019-01-25T00:24:52.351Z,3.09
2019-01-25T00:25:52.340Z,3.1
2019-01-25T00:26:52.183Z,3.1
2019-01-25T00:27:51.958Z,3.11
2019-01-25T00:28:52.556Z,3.1
2019-01-25T00:29:52.216Z,3.12
2019-01-25T00:30:52.259Z,3.11
2019-01-25T00:31:52.042Z,3.12
2019-01-25T00:32:52.289Z,3.14
2019-01-25T00:33:52.131Z,3.11
2019-01-25T00:34:52.184Z,3.09
2019-01-25T00:35:52.173Z,3.11
2019-01-25T00:36:52.565Z,3.11
2019-01-25T00:37:51.972Z,3.08
2019-01-25T00:38:52.328Z,3.09
2019-01-25T00:39:52.173Z,3.12
2019-01-25T00:40:52.243Z,3.13
2019-01-25T00:41:52.037Z,3.13
2019-01-25T00:42:52.395Z,3.13
2019-01-25T00:43:53.761Z,3.15
2019-01-25T00:44:52.288Z,3.15
2019-01-25T00:45:52.268Z,3.16
2019-01-25T00:46:52.290Z,3.17
2019-01-25T00:47:52.036Z,3.16
2019-01-25T00:48:51.954Z,3.13
2019-01-25T00:49:52.343Z,3.13
2019-01-25T00:50:52.049Z,3.12
2019-01-25T00:51:52.254Z,3.13
2019-01-25T00:52:52.255Z,3.13
2019-01-25T00:53:52.269Z,3.15
2019-01-25T00:54:51.994Z,3.15
2019-01-25T00:55:52.357Z,3.16
2019-01-25T00:56:52.114Z,3.15
2019-01-25T00:57:52.093Z,3.15
2019-01-25T00:58:52.431Z,3.16
2019-01-25T00:59:52.171Z,3.16
2019-01-25T01:00:52.035Z,3.16
2019-01-25T01:01:52.299Z,3.16
2019-01-25T01:02:51.923Z,3.16
2019-01-25T01:03:53.763Z,3.17
2019-01-25T01:04:52.205Z,3.17
2019-01-25T01:05:52.215Z,3.18
2019-01-25T01:06:52.116Z,3.18
2019-01-25T01:07:51.891Z,3.17
2019-01-25T01:08:51.935Z,3.18
2019-01-25T01:09:52.332Z,3.19
2019-01-25T01:10:51.919Z,3.19
2019-01-25T01:11:51.944Z,3.22
2019-01-25T01:12:52.047Z,3.23
2019-01-25T01:13:51.897Z,3.24
2019-01-25T01:14:52.125Z,3.23
2019-01-25T01:15:51.988Z,3.24
2019-01-25T01:16:52.245Z,3.25
2019-01-25T01:17:52.204Z,3.24
2019-01-25T01:18:52.192Z,3.24
2019-01-25T01:19:51.995Z,3.24
2019-01-25T01:20:53.226Z,3.23
2019-01-25T01:21:52.330Z,3.22
2019-01-25T01:22:51.879Z,3.22
2019-01-25T01:23:53.729Z,3.23
2019-01-25T01:24:52.390Z,3.19
2019-01-25T01:25:52.002Z,3.18
2019-01-25T01:26:52.193Z,3.17
2019-01-25T01:27:51.861Z,3.19
2019-01-25T01:28:52.067Z,3.19
2019-01-25T01:29:52.790Z,3.18
2019-01-25T01:30:52.104Z,3.18
2019-01-25T01:31:53.013Z,3.15
2019-01-25T01:32:53.235Z,3.14
2019-01-25T01:33:52.288Z,3.15
2019-01-25T01:34:52.450Z,3.16
2019-01-25T01:35:52.074Z,3.16
2019-01-25T01:36:52.272Z,3.16
2019-01-25T01:37:52.033Z,3.15
2019-01-25T01:38:51.915Z,3.15
2019-01-25T01:39:51.938Z,3.15
2019-01-25T01:40:52.306Z,3.14
2019-01-25T01:41:52.162Z,3.1
2019-01-25T01:42:52.077Z,3.1
2019-01-25T01:43:52.065Z,3.1
2019-01-25T01:44:51.883Z,3.09
2019-01-25T01:45:51.847Z,3.08
2019-01-25T01:46:52.161Z,3.11
2019-01-25T01:47:52.210Z,3.1
2019-01-25T01:48:51.874Z,3.1
2019-01-25T01:49:51.826Z,3.1
2019-01-25T01:50:52.317Z,3.1
2019-01-25T01:51:52.265Z,3.11
2019-01-25T01:52:51.830Z,3.11
2019-01-25T01:53:51.909Z,3.12
2019-01-25T01:54:51.866Z,3.08
2019-01-25T01:55:52.155Z,3.08
2019-01-25T01:56:52.206Z,3.1
2019-01-25T01:57:52.163Z,3.09
2019-01-25T01:58:51.859Z,3.1
2019-01-25T01:59:51.902Z,3.09
2019-01-25T02:00:51.986Z,3.11
2019-01-25T02:01:52.019Z,3.1
2019-01-25T02:02:51.798Z,3.1
2019-01-25T02:03:51.839Z,3.09
2019-01-25T02:04:51.835Z,3.09
2019-01-25T02:05:51.865Z,3.09
2019-01-25T02:06:52.173Z,3.09
2019-01-25T02:07:51.861Z,3.09
2019-01-25T02:08:51.993Z,3.09
2019-01-25T02:09:51.910Z,3.09
2019-01-25T02:10:51.873Z,3.08
2019-01-25T02:11:51.819Z,3.07
2019-01-25T02:12:51.839Z,3.07
2019-01-25T02:13:51.817Z,3.08
2019-01-25T02:14:51.883Z,3.06
2019-01-25T02:15:52.279Z,3.05
2019-01-25T02:16:51.871Z,3.05
2019-01-25T02:17:51.851Z,3.06
2019-01-25T02:18:51.824Z,3.06
2019-01-25T02:19:51.814Z,3.06
2019-01-25T02:20:51.850Z,3.06
2019-01-25T02:21:53.417Z,3.05
2019-01-25T02:22:51.785Z,3.05
2019-01-25T02:23:51.857Z,3.04
2019-01-25T02:24:51.880Z,3.04
2019-01-25T02:25:51.929Z,3.05
2019-01-25T02:26:51.778Z,3.06
2019-01-25T02:27:51.814Z,3.06
2019-01-25T02:28:52.179Z,3.06
2019-01-25T02:29:51.979Z,3.06
2019-01-25T02:30:51.985Z,3.07
2019-01-25T02:31:52.232Z,3.07
2019-01-25T02:32:52.036Z,3.07
2019-01-25T02:33:51.783Z,3.03
2019-01-25T02:34:52.003Z,3.03
2019-01-25T02:35:52.221Z,3.02
2019-01-25T02:36:52.057Z,3.02
2019-01-25T02:37:51.788Z,3.03
2019-01-25T02:38:51.873Z,3.04
2019-01-25T02:39:51.823Z,3.04
2019-01-25T02:40:52.348Z,3.06
2019-01-25T02:41:52.152Z,3.05
2019-01-25T02:42:51.894Z,3.05
2019-01-25T02:43:52.010Z,3.06
2019-01-25T02:44:51.794Z,3.06
2019-01-25T02:45:52.001Z,3.06
2019-01-25T02:46:51.760Z,3.06
2019-01-25T02:47:51.778Z,3.06
2019-01-25T02:48:51.867Z,3.04
2019-01-25T02:49:52.096Z,3.03
2019-01-25T02:50:52.029Z,3.04
2019-01-25T02:51:52.053Z,3.04
2019-01-25T02:52:52.013Z,3.04
2019-01-25T02:53:52.662Z,3.03
2019-01-25T02:54:51.920Z,3.04
2019-01-25T02:55:51.802Z,3.05
2019-01-25T02:56:51.898Z,3.04
2019-01-25T02:57:51.752Z,3.04
2019-01-25T02:58:51.802Z,3.03
2019-01-25T02:59:51.792Z,3.03
2019-01-25T03:00:51.959Z,3.03
2019-01-25T03:01:51.776Z,3.04
2019-01-25T03:02:51.862Z,3.03
2019-01-25T03:03:51.939Z,3.03
2019-01-25T03:04:51.912Z,3.04
2019-01-25T03:05:52.073Z,3.03
2019-01-25T03:06:52.233Z,3.04
2019-01-25T03:07:51.830Z,3.04
2019-01-25T03:08:52.429Z,3.04
2019-01-25T03:09:52.260Z,3.05
2019-01-25T03:10:51.857Z,3.04
2019-01-25T03:11:51.803Z,3.04
2019-01-25T03:12:51.926Z,3.04
2019-01-25T03:13:51.823Z,3.04
2019-01-25T03:14:51.756Z,3.04
2019-01-25T03:15:51.741Z,3.03
2019-01-25T03:16:51.806Z,3.02
2019-01-25T03:17:51.842Z,3.03
2019-01-25T03:18:51.825Z,3.03
2019-01-25T03:19:51.833Z,3.02
2019-01-25T03:20:51.690Z,3.03
2019-01-25T03:21:51.795Z,3.03
2019-01-25T03:22:52.057Z,3.03
2019-01-25T03:23:51.721Z,3.03
2019-01-25T03:24:51.847Z,3.02
2019-01-25T03:25:51.970Z,3.03
2019-01-25T03:26:51.828Z,3.02
2019-01-25T03:27:52.175Z,3.03
2019-01-25T03:28:52.031Z,3.02
2019-01-25T03:29:52.090Z,3.02
2019-01-25T03:30:51.920Z,3.02
2019-01-25T03:31:51.797Z,3.02
2019-01-25T03:32:51.917Z,3.02
2019-01-25T03:33:52.393Z,3.02
2019-01-25T03:34:51.693Z,3.02
2019-01-25T03:35:51.804Z,3.02
2019-01-25T03:36:51.762Z,3.02
2019-01-25T03:37:51.757Z,3.02
2019-01-25T03:38:51.746Z,3.02
2019-01-25T03:39:51.840Z,3.01
2019-01-25T03:40:55.779Z,3.01
2019-01-25T03:41:53.371Z,3.02
2019-01-25T03:42:52.201Z,3.03
2019-01-25T03:43:51.747Z,3.02
2019-01-25T03:44:51.784Z,3.03
2019-01-25T03:45:51.996Z,3.02
2019-01-25T03:46:51.876Z,3.03
2019-01-25T03:47:51.715Z,3.03
2019-01-25T03:48:51.914Z,3.03
2019-01-25T03:49:51.763Z,3.02
2019-01-25T03:50:51.749Z,3.03
2019-01-25T03:51:51.845Z,3.02
2019-01-25T03:52:51.670Z,3.02
2019-01-25T03:53:51.638Z,3.03
2019-01-25T03:54:51.927Z,3.02
2019-01-25T03:55:51.684Z,3.02
2019-01-25T03:56:51.691Z,3.02
2019-01-25T03:57:51.710Z,3.03
2019-01-25T03:58:51.826Z,3.02
2019-01-25T03:59:51.661Z,3.03
2019-01-25T04:00:51.769Z,3.03
2019-01-25T04:01:51.723Z,3.03
2019-01-25T04:02:51.653Z,3.02
2019-01-25T04:03:51.636Z,3.02
2019-01-25T04:04:51.710Z,3.03
2019-01-25T04:05:51.660Z,3.03
2019-01-25T04:06:51.816Z,3.04
2019-01-25T04:07:51.697Z,3.03
2019-01-25T04:08:51.835Z,3.04
2019-01-25T04:09:51.742Z,3.04
2019-01-25T04:10:51.760Z,3.05
2019-01-25T04:11:51.746Z,3.05
2019-01-25T04:12:51.763Z,3.04
2019-01-25T04:13:51.916Z,3.04
2019-01-25T04:14:51.737Z,3.05
2019-01-25T04:15:52.039Z,3.05
2019-01-25T04:16:51.695Z,3.04
2019-01-25T04:17:51.632Z,3.05
2019-01-25T04:18:52.940Z,3.05
2019-01-25T04:19:51.769Z,3.04
2019-01-25T04:20:51.603Z,3.06
2019-01-25T04:21:51.792Z,3.05
2019-01-25T04:22:51.943Z,3.06
2019-01-25T04:23:51.599Z,3.06
2019-01-25T04:24:51.581Z,3.06
2019-01-25T04:25:51.584Z,3.05
2019-01-25T04:26:51.646Z,3.06
2019-01-25T04:27:51.631Z,3.05
2019-01-25T04:28:51.922Z,3.06
2019-01-25T04:29:51.711Z,3.06
2019-01-25T04:30:51.923Z,3.06
2019-01-25T04:31:51.782Z,3.06
2019-01-25T04:32:51.857Z,3.06
2019-01-25T04:33:51.820Z,3.07
2019-01-25T04:34:51.571Z,3.07
2019-01-25T04:35:51.658Z,3.07
2019-01-25T04:36:51.841Z,3.07
2019-01-25T04:37:51.871Z,3.08
2019-01-25T04:38:51.729Z,3.07
2019-01-25T04:39:51.762Z,3.08
2019-01-25T04:40:51.926Z,3.08
2019-01-25T04:41:51.698Z,3.08
2019-01-25T04:42:51.897Z,3.1
2019-01-25T04:43:51.681Z,3.1
2019-01-25T04:44:51.624Z,3.1
2019-01-25T04:45:51.776Z,3.1
2019-01-25T04:46:52.328Z,3.11
2019-01-25T04:47:51.634Z,3.11
2019-01-25T04:48:51.555Z,3.11
2019-01-25T04:50:01.286Z,3.11
2019-01-25T04:50:51.657Z,3.12
2019-01-25T04:51:51.722Z,3.12
2019-01-25T04:52:52.899Z,3.12
2019-01-25T04:53:51.786Z,3.12
2019-01-25T04:54:51.932Z,3.13
2019-01-25T04:55:51.704Z,3.12
2019-01-25T04:56:51.703Z,3.12
2019-01-25T04:57:51.871Z,3.11
2019-01-25T04:58:51.569Z,3.14
2019-01-25T04:59:51.638Z,3.15
2019-01-25T05:00:51.596Z,3.15
2019-01-25T05:01:52.455Z,3.15
2019-01-25T05:02:51.588Z,3.16
2019-01-25T05:03:51.780Z,3.16
2019-01-25T05:04:51.643Z,3.17
2019-01-25T05:05:51.822Z,3.18
2019-01-25T05:06:51.859Z,3.18
2019-01-25T05:07:53.492Z,3.18
2019-01-25T05:08:51.730Z,3.16
2019-01-25T05:09:51.547Z,3.18
2019-01-25T05:10:52.236Z,3.2
2019-01-25T05:11:51.556Z,3.2
2019-01-25T05:12:53.418Z,3.18
2019-01-25T05:13:51.685Z,3.19
2019-01-25T05:14:51.650Z,3.18
2019-01-25T05:15:51.808Z,3.19
2019-01-25T05:16:51.824Z,3.23
2019-01-25T05:17:51.831Z,3.21
2019-01-25T05:18:51.557Z,3.21
2019-01-25T05:19:51.615Z,3.21
2019-01-25T05:20:51.665Z,3.22
2019-01-25T05:21:51.629Z,3.21
2019-01-25T05:22:51.723Z,3.23
2019-01-25T05:23:51.928Z,3.23
2019-01-25T05:24:51.659Z,3.23
2019-01-25T05:25:51.782Z,3.23
2019-01-25T05:26:51.850Z,3.24
2019-01-25T05:27:51.516Z,3.24
2019-01-25T05:28:51.828Z,3.25
2019-01-25T05:29:51.540Z,3.25
2019-01-25T05:30:52.393Z,3.26
2019-01-25T05:31:51.609Z,3.26
2019-01-25T05:32:51.909Z,3.26
2019-01-25T05:33:51.519Z,3.25
2019-01-25T05:34:51.737Z,3.26
2019-01-25T05:35:51.684Z,3.28
2019-01-25T05:36:51.540Z,3.27
2019-01-25T05:37:51.843Z,3.27
2019-01-25T05:38:51.858Z,3.28
2019-01-25T05:39:51.604Z,3.27
2019-01-25T05:40:51.735Z,3.27
2019-01-25T05:41:53.866Z,3.27
2019-01-25T05:42:55.975Z,3.27
2019-01-25T05:43:53.710Z,3.28
2019-01-25T05:44:53.720Z,3.28
2019-01-25T05:45:56.606Z,3.29
2019-01-25T05:46:51.648Z,3.3
2019-01-25T05:47:51.539Z,3.3
2019-01-25T05:48:51.878Z,3.29
2019-01-25T05:49:51.523Z,3.3
2019-01-25T05:50:51.541Z,3.3
2019-01-25T05:51:51.581Z,3.3
2019-01-25T05:52:51.597Z,3.29
2019-01-25T05:53:52.483Z,3.3
2019-01-25T05:54:51.531Z,3.31
2019-01-25T05:55:51.771Z,3.31
2019-01-25T05:56:51.515Z,3.31
2019-01-25T05:57:51.708Z,3.3
2019-01-25T05:58:51.516Z,3.31
2019-01-25T05:59:51.509Z,3.32
2019-01-25T06:00:51.603Z,3.31
2019-01-25T06:01:51.595Z,3.31
2019-01-25T06:02:51.511Z,3.31
2019-01-25T06:03:51.494Z,3.33
2019-01-25T06:04:51.500Z,3.32
2019-01-25T06:05:51.997Z,3.33
2019-01-25T06:06:51.419Z,3.34
2019-01-25T06:07:51.459Z,3.33
2019-01-25T06:08:51.683Z,3.34
2019-01-25T06:09:51.848Z,3.35
2019-01-25T06:10:51.660Z,3.36
2019-01-25T06:11:51.655Z,3.37
2019-01-25T06:12:51.666Z,3.38
2019-01-25T06:13:51.678Z,3.39
2019-01-25T06:14:51.604Z,3.39
2019-01-25T06:15:51.961Z,3.39
2019-01-25T06:16:51.875Z,3.38
2019-01-25T06:17:51.602Z,3.39
2019-01-25T06:18:52.459Z,3.38
2019-01-25T06:19:51.530Z,3.39
2019-01-25T06:20:51.897Z,3.37
2019-01-25T06:21:51.622Z,3.38
2019-01-25T06:22:51.569Z,3.39
2019-01-25T06:23:51.786Z,3.39
2019-01-25T06:24:51.478Z,3.4
2019-01-25T06:25:51.548Z,3.41
2019-01-25T06:26:51.503Z,3.41
2019-01-25T06:27:52.050Z,3.39
2019-01-25T06:28:51.676Z,3.4
2019-01-25T06:29:51.683Z,3.41
2019-01-25T06:30:52.501Z,3.41
2019-01-25T06:31:51.682Z,3.41
2019-01-25T06:32:51.655Z,3.42
2019-01-25T06:33:51.631Z,3.42
2019-01-25T06:34:51.481Z,3.44
2019-01-25T06:35:51.617Z,3.41
2019-01-25T06:36:51.763Z,3.44
2019-01-25T06:37:51.437Z,3.44
2019-01-25T06:38:51.424Z,3.43
2019-01-25T06:39:51.478Z,3.43
2019-01-25T06:40:51.486Z,3.42
2019-01-25T06:41:52.181Z,3.42
2019-01-25T06:42:51.594Z,3.42
2019-01-25T06:43:51.825Z,3.44
2019-01-25T06:44:51.453Z,3.44
2019-01-25T06:45:51.382Z,3.44
2019-01-25T06:46:52.389Z,3.44
2019-01-25T06:47:52.009Z,3.47
2019-01-25T06:48:51.540Z,3.47
2019-01-25T06:49:51.515Z,3.45
2019-01-25T06:50:51.866Z,3.44
2019-01-25T06:51:51.776Z,3.44
2019-01-25T06:52:51.530Z,3.44
2019-01-25T06:53:51.666Z,3.44
2019-01-25T06:54:51.361Z,3.45
2019-01-25T06:55:51.475Z,3.45
2019-01-25T06:56:51.403Z,3.45
2019-01-25T06:57:51.591Z,3.45
2019-01-25T06:58:51.834Z,3.45
2019-01-25T06:59:51.450Z,3.46
2019-01-25T07:00:51.744Z,3.45
2019-01-25T07:01:51.949Z,3.46
2019-01-25T07:02:51.673Z,3.46
2019-01-25T07:03:51.431Z,3.46
2019-01-25T07:04:52.983Z,3.47
2019-01-25T07:05:51.723Z,3.48
2019-01-25T07:06:51.423Z,3.48
2019-01-25T07:07:51.844Z,3.46
2019-01-25T07:08:53.270Z,3.47
2019-01-25T07:09:51.874Z,3.46
2019-01-25T07:10:51.446Z,3.46
2019-01-25T07:11:52.294Z,3.45
2019-01-25T07:12:51.375Z,3.45
2019-01-25T07:13:51.613Z,3.45
2019-01-25T07:14:51.353Z,3.46
2019-01-25T07:15:51.921Z,3.47
2019-01-25T07:16:51.440Z,3.48
2019-01-25T07:17:51.244Z,3.48
2019-01-25T07:18:51.528Z,3.48
2019-01-25T07:19:51.626Z,3.49
2019-01-25T07:20:51.438Z,3.49
2019-01-25T07:21:51.376Z,3.47
2019-01-25T07:22:51.676Z,3.48
2019-01-25T07:23:51.381Z,3.48
2019-01-25T07:24:57.624Z,3.49
2019-01-25T07:25:51.385Z,3.48
2019-01-25T07:26:51.306Z,3.5
2019-01-25T07:27:51.798Z,3.5
2019-01-25T07:28:51.478Z,3.52
2019-01-25T07:29:51.391Z,3.5
2019-01-25T07:30:51.495Z,3.49
2019-01-25T07:31:51.530Z,3.49
2019-01-25T07:32:51.435Z,3.49
2019-01-25T07:33:51.524Z,3.49
2019-01-25T07:34:51.500Z,3.49
2019-01-25T07:35:52.098Z,3.48
2019-01-25T07:36:52.461Z,3.49
2019-01-25T07:37:51.432Z,3.51
2019-01-25T07:38:51.337Z,3.52
2019-01-25T07:39:51.415Z,3.51
2019-01-25T07:40:51.516Z,3.51
2019-01-25T07:42:02.690Z,3.51
2019-01-25T07:42:51.453Z,3.51
2019-01-25T07:43:51.399Z,3.53
2019-01-25T07:44:52.237Z,3.52
2019-01-25T07:45:51.451Z,3.51
2019-01-25T07:46:51.398Z,3.5
2019-01-25T07:47:51.504Z,3.51
2019-01-25T07:48:51.399Z,3.51
2019-01-25T07:49:51.473Z,3.51
2019-01-25T07:50:51.305Z,3.51
2019-01-25T07:51:53.143Z,3.52
2019-01-25T07:52:51.737Z,3.51
2019-01-25T07:53:52.045Z,3.52
2019-01-25T07:54:51.833Z,3.53
2019-01-25T07:55:51.304Z,3.54
2019-01-25T07:56:51.564Z,3.56
2019-01-25T07:57:51.690Z,3.56
2019-01-25T07:58:51.621Z,3.55
2019-01-25T07:59:51.532Z,3.54
2019-01-25T08:00:51.689Z,3.54
2019-01-25T08:01:51.430Z,3.54
2019-01-25T08:02:51.429Z,3.56
2019-01-25T08:03:53.360Z,3.56
2019-01-25T08:04:52.144Z,3.54
2019-01-25T08:05:51.493Z,3.54
2019-01-25T08:06:51.397Z,3.54
2019-01-25T08:07:51.464Z,3.54
2019-01-25T08:08:51.693Z,3.55
2019-01-25T08:09:52.436Z,3.54
2019-01-25T08:10:51.683Z,3.56
2019-01-25T08:11:51.530Z,3.56
2019-01-25T08:12:51.372Z,3.55
2019-01-25T08:13:51.396Z,3.56
2019-01-25T08:14:51.755Z,3.55
2019-01-25T08:15:52.459Z,3.56
2019-01-25T08:16:54.373Z,3.56
2019-01-25T08:17:51.620Z,3.56
2019-01-25T08:18:52.199Z,3.56
2019-01-25T08:19:51.645Z,3.57
2019-01-25T08:20:51.354Z,3.57
2019-01-25T08:21:51.380Z,3.58
2019-01-25T08:22:51.848Z,3.58
2019-01-25T08:23:51.328Z,3.59
2019-01-25T08:24:52.192Z,3.59
2019-01-25T08:25:51.965Z,3.59
2019-01-25T08:26:51.782Z,3.58
2019-01-25T08:27:51.617Z,3.59
2019-01-25T08:28:51.536Z,3.59
2019-01-25T08:29:51.409Z,3.59
2019-01-25T08:30:51.955Z,3.58
2019-01-25T08:31:52.375Z,3.57
2019-01-25T08:32:52.257Z,3.58
2019-01-25T08:33:52.141Z,3.57
2019-01-25T08:34:51.378Z,3.59
2019-01-25T08:35:51.513Z,3.61
2019-01-25T08:36:51.436Z,3.61
2019-01-25T08:37:51.525Z,3.61
2019-01-25T08:38:51.664Z,3.6
2019-01-25T08:39:51.373Z,3.61
2019-01-25T08:40:51.228Z,3.62
2019-01-25T08:41:51.646Z,3.61
2019-01-25T08:42:51.623Z,3.61
2019-01-25T08:43:51.586Z,3.61
2019-01-25T08:44:51.361Z,3.62
2019-01-25T08:45:51.497Z,3.64
2019-01-25T08:46:51.426Z,3.63
2019-01-25T08:47:51.655Z,3.63
2019-01-25T08:48:51.337Z,3.64
2019-01-25T08:49:58.510Z,3.65
2019-01-25T08:50:52.035Z,3.64
2019-01-25T08:51:51.482Z,3.64
2019-01-25T08:52:51.901Z,3.63
2019-01-25T08:53:51.291Z,3.63
2019-01-25T08:54:51.413Z,3.63
2019-01-25T08:55:51.477Z,3.63
2019-01-25T08:56:51.556Z,3.65
2019-01-25T08:57:51.614Z,3.65
2019-01-25T08:58:51.393Z,3.64
2019-01-25T08:59:51.414Z,3.63
2019-01-25T09:00:52.250Z,3.64
2019-01-25T09:01:51.730Z,3.64
2019-01-25T09:02:51.163Z,3.65
2019-01-25T09:03:51.267Z,3.66
2019-01-25T09:04:51.352Z,3.66
2019-01-25T09:05:51.329Z,3.67
2019-01-25T09:06:51.377Z,3.69
2019-01-25T09:07:51.485Z,3.68
2019-01-25T09:08:51.586Z,3.68
2019-01-25T09:09:51.560Z,3.67
2019-01-25T09:10:51.461Z,3.67
2019-01-25T09:11:51.196Z,3.65
2019-01-25T09:12:51.316Z,3.67
2019-01-25T09:13:51.370Z,3.67
2019-01-25T09:14:51.606Z,3.68
2019-01-25T09:15:51.191Z,3.68
2019-01-25T09:16:51.381Z,3.69
2019-01-25T09:17:51.414Z,3.7
2019-01-25T09:18:51.283Z,3.69
2019-01-25T09:19:51.869Z,3.69
2019-01-25T09:20:51.297Z,3.68
2019-01-25T09:21:51.290Z,3.7
2019-01-25T09:22:51.233Z,3.7
2019-01-25T09:23:51.613Z,3.7
2019-01-25T09:24:51.220Z,3.7
2019-01-25T09:25:52.573Z,3.7
2019-01-25T09:26:51.180Z,3.72
2019-01-25T09:27:51.393Z,3.71
2019-01-25T09:28:51.500Z,3.7
2019-01-25T09:29:51.230Z,3.71
2019-01-25T09:30:51.336Z,3.71
2019-01-25T09:31:51.142Z,3.7
2019-01-25T09:32:51.150Z,3.71
2019-01-25T09:33:51.152Z,3.71
2019-01-25T09:34:51.239Z,3.73
2019-01-25T09:35:51.221Z,3.73
2019-01-25T09:36:51.658Z,3.73
2019-01-25T09:37:51.300Z,3.76
2019-01-25T09:38:51.203Z,3.75
2019-01-25T09:39:51.321Z,3.75
2019-01-25T09:40:52.923Z,3.75
2019-01-25T09:41:50.916Z,3.75
2019-01-25T09:42:51.135Z,3.74
2019-01-25T09:43:51.133Z,3.74
2019-01-25T09:44:51.206Z,3.75
2019-01-25T09:45:51.646Z,3.76
2019-01-25T09:46:51.565Z,3.77
2019-01-25T09:47:51.410Z,3.78
2019-01-25T09:48:51.263Z,3.77
2019-01-25T09:49:51.166Z,3.77
2019-01-25T09:50:53.236Z,3.76
2019-01-25T09:51:51.547Z,3.76
2019-01-25T09:52:51.456Z,3.75
2019-01-25T09:53:52.702Z,3.76
2019-01-25T09:54:51.551Z,3.75
2019-01-25T09:55:51.353Z,3.76
2019-01-25T09:56:51.042Z,3.8
2019-01-25T09:57:51.130Z,3.79
2019-01-25T09:58:51.153Z,3.77
2019-01-25T09:59:51.442Z,3.77
2019-01-25T10:00:51.132Z,3.77
2019-01-25T10:01:51.681Z,3.79
2019-01-25T10:02:51.432Z,3.8
2019-01-25T10:03:51.065Z,3.79
2019-01-25T10:04:51.177Z,3.8
2019-01-25T10:05:51.340Z,3.81
2019-01-25T10:06:51.410Z,3.81
2019-01-25T10:07:51.552Z,3.8
2019-01-25T10:08:51.496Z,3.82
2019-01-25T10:09:51.437Z,3.82
2019-01-25T10:10:51.063Z,3.82
2019-01-25T10:11:51.359Z,3.8
2019-01-25T10:12:51.030Z,3.81
2019-01-25T10:13:51.080Z,3.81
2019-01-25T10:14:51.220Z,3.83
2019-01-25T10:15:51.099Z,3.79
2019-01-25T10:16:51.725Z,3.8
2019-01-25T10:17:51.242Z,3.81
2019-01-25T10:18:51.120Z,3.82
2019-01-25T10:19:51.206Z,3.81
2019-01-25T10:20:51.098Z,3.81
2019-01-25T10:21:50.988Z,3.81
2019-01-25T10:22:51.050Z,3.82
2019-01-25T10:23:51.162Z,3.81
2019-01-25T10:24:51.063Z,3.82
2019-01-25T10:25:51.261Z,3.83
2019-01-25T10:26:51.803Z,3.85
2019-01-25T10:27:51.832Z,3.85
2019-01-25T10:28:51.508Z,3.83
2019-01-25T10:29:51.688Z,3.83
2019-01-25T10:30:51.110Z,3.83
2019-01-25T10:31:51.182Z,3.82
2019-01-25T10:32:51.404Z,3.84
2019-01-25T10:33:52.889Z,3.84
2019-01-25T10:34:52.824Z,3.83
2019-01-25T10:35:51.302Z,3.85
2019-01-25T10:36:51.527Z,3.85
2019-01-25T10:37:51.299Z,3.84
2019-01-25T10:38:51.267Z,3.85
2019-01-25T10:39:51.456Z,3.84
2019-01-25T10:40:51.235Z,3.83
2019-01-25T10:41:51.136Z,3.83
2019-01-25T10:42:54.058Z,3.82
2019-01-25T10:43:51.122Z,3.83
2019-01-25T10:44:51.515Z,3.84
2019-01-25T10:45:51.110Z,3.84
2019-01-25T10:46:52.626Z,3.84
2019-01-25T10:47:51.406Z,3.86
2019-01-25T10:48:51.412Z,3.85
2019-01-25T10:49:51.299Z,3.85
2019-01-25T10:50:52.860Z,3.86
2019-01-25T10:52:51.239Z,3.88
2019-01-25T10:53:51.127Z,3.89
2019-01-25T10:54:51.430Z,3.88
2019-01-25T10:55:51.091Z,3.89
2019-01-25T10:56:51.474Z,3.89
2019-01-25T10:57:51.450Z,3.89
2019-01-25T10:58:51.012Z,3.9
2019-01-25T10:59:51.171Z,3.9
2019-01-25T11:00:51.741Z,3.9
2019-01-25T11:01:51.258Z,3.91
2019-01-25T11:02:58.836Z,3.89
2019-01-25T11:03:51.154Z,3.91
2019-01-25T11:04:51.234Z,3.93
2019-01-25T11:05:51.046Z,3.93
2019-01-25T11:06:51.344Z,3.92
2019-01-25T11:07:51.252Z,3.92
2019-01-25T11:08:51.016Z,3.92
2019-01-25T11:09:50.976Z,3.91
2019-01-25T11:10:51.272Z,3.92
2019-01-25T11:11:51.646Z,3.92
2019-01-25T11:12:51.063Z,3.91
2019-01-25T11:13:51.209Z,3.91
2019-01-25T11:14:51.094Z,3.93
2019-01-25T11:15:51.240Z,3.93
2019-01-25T11:16:51.097Z,3.92
2019-01-25T11:17:51.155Z,3.9
2019-01-25T11:18:51.171Z,3.91
2019-01-25T11:19:51.148Z,3.92
2019-01-25T11:20:51.103Z,3.91
2019-01-25T11:21:51.378Z,3.89
2019-01-25T11:22:51.139Z,3.89
2019-01-25T11:23:51.691Z,3.9
2019-01-25T11:24:51.246Z,3.9
2019-01-25T11:25:50.963Z,3.9
2019-01-25T11:26:51.324Z,3.9
2019-01-25T11:27:50.950Z,3.9
2019-01-25T11:28:51.214Z,3.89
2019-01-25T11:29:51.807Z,3.91
2019-01-25T11:30:51.177Z,3.91
2019-01-25T11:31:51.173Z,3.91
2019-01-25T11:32:51.060Z,3.91
2019-01-25T11:33:51.093Z,3.93
2019-01-25T11:34:50.959Z,3.93
2019-01-25T11:35:51.220Z,3.94
2019-01-25T11:36:51.058Z,3.93
2019-01-25T11:37:51.243Z,3.92
2019-01-25T11:38:51.097Z,3.94
2019-01-25T11:39:51.069Z,3.95
2019-01-25T11:40:50.967Z,3.95
2019-01-25T11:41:51.489Z,3.95
2019-01-25T11:42:51.130Z,3.95
2019-01-25T11:43:51.631Z,3.93
2019-01-25T11:44:51.172Z,3.94
2019-01-25T11:45:54.668Z,3.94
2019-01-25T11:46:51.052Z,3.96
2019-01-25T11:47:50.913Z,3.96
2019-01-25T11:48:51.142Z,3.94
2019-01-25T11:49:51.391Z,3.94
2019-01-25T11:50:51.152Z,3.95
2019-01-25T11:51:51.197Z,3.95
2019-01-25T11:52:50.913Z,3.95
2019-01-25T11:53:51.512Z,3.96
2019-01-25T11:54:51.017Z,3.98
2019-01-25T11:55:51.110Z,3.97
2019-01-25T11:56:50.897Z,3.98
2019-01-25T11:57:50.909Z,3.96
2019-01-25T11:58:50.448Z,3.97
2019-01-25T11:59:51.247Z,3.96
2019-01-25T12:00:51.050Z,3.98
2019-01-25T12:02:51.373Z,3.98
2019-01-25T12:03:51.366Z,3.99
2019-01-25T12:04:51.082Z,3.98
2019-01-25T12:05:51.172Z,3.98
2019-01-25T12:06:50.890Z,3.99
2019-01-25T12:07:51.195Z,4
2019-01-25T12:08:51.095Z,4
2019-01-25T12:09:51.218Z,3.98
2019-01-25T12:10:50.997Z,3.96
2019-01-25T12:11:50.875Z,3.98
2019-01-25T12:12:51.045Z,3.98
2019-01-25T12:13:51.251Z,3.96
2019-01-25T12:14:51.269Z,3.97
2019-01-25T12:15:51.659Z,3.99
2019-01-25T12:16:50.985Z,3.97
2019-01-25T12:17:50.907Z,3.98
2019-01-25T12:18:51.193Z,3.99
2019-01-25T12:19:51.267Z,3.99
2019-01-25T12:20:51.501Z,4
2019-01-25T12:21:51.423Z,4.02
2019-01-25T12:22:52.651Z,4.01
2019-01-25T12:23:51.203Z,4.01
2019-01-25T12:24:51.796Z,4.03
2019-01-25T12:25:51.217Z,4.02
2019-01-25T12:26:50.957Z,4.01
2019-01-25T12:27:51.133Z,3.99
2019-01-25T12:28:51.119Z,4
2019-01-25T12:29:51.029Z,4.01
2019-01-25T12:30:51.692Z,4.02
2019-01-25T12:31:51.282Z,4.02
2019-01-25T12:32:51.250Z,4
2019-01-25T12:33:50.967Z,4
2019-01-25T12:34:50.922Z,4.02
2019-01-25T12:35:50.938Z,4.04
2019-01-25T12:36:50.892Z,4.01
2019-01-25T12:37:51.295Z,4.01
2019-01-25T12:38:51.335Z,4.03
2019-01-25T12:39:50.895Z,4.04
2019-01-25T12:40:50.853Z,4.05
2019-01-25T12:41:51.123Z,4.07
2019-01-25T12:42:51.238Z,4.05
2019-01-25T12:43:50.833Z,4.04
2019-01-25T12:44:51.304Z,4.05
2019-01-25T12:45:50.855Z,4.07
2019-01-25T12:46:50.831Z,4.04
2019-01-25T12:47:50.839Z,4.03
2019-01-25T12:48:50.880Z,4.02
2019-01-25T12:49:50.823Z,4.03
2019-01-25T12:50:50.824Z,4.02
2019-01-25T12:51:50.779Z,4.03
2019-01-25T12:52:52.099Z,4.04
2019-01-25T12:53:51.131Z,4.04
2019-01-25T12:54:51.000Z,4.03
2019-01-25T12:55:50.932Z,4.03
2019-01-25T12:56:50.816Z,4.03
2019-01-25T12:57:50.879Z,4.03
2019-01-25T12:58:50.832Z,4.06
2019-01-25T12:59:50.772Z,4.05
2019-01-25T13:00:51.342Z,4.05
2019-01-25T13:01:51.478Z,4.06
2019-01-25T13:02:51.071Z,4.06
2019-01-25T13:03:50.804Z,4.07
2019-01-25T13:04:50.981Z,4.07
2019-01-25T13:05:51.075Z,4.06
2019-01-25T13:06:50.933Z,4.04
2019-01-25T13:07:51.038Z,4.04
2019-01-25T13:08:51.167Z,4.04
2019-01-25T13:09:51.072Z,4.02
2019-01-25T13:10:50.814Z,4.03
2019-01-25T13:11:51.092Z,4.04
2019-01-25T13:12:51.182Z,4.03
2019-01-25T13:13:50.826Z,4.03
2019-01-25T13:14:50.893Z,4.03
2019-01-25T13:15:51.171Z,4.04
2019-01-25T13:16:51.061Z,4.05
2019-01-25T13:17:51.226Z,4.05
2019-01-25T13:18:51.479Z,4.04
2019-01-25T13:19:51.198Z,4.06
2019-01-25T13:20:51.067Z,4.08
2019-01-25T13:21:51.017Z,4.09
2019-01-25T13:22:51.037Z,4.1
2019-01-25T13:23:51.043Z,4.1